createdAt,value
2018-09-11T00:00:40.077Z,96.80
2018-09-11T00:03:08.955Z,97.00
2018-09-11T00:05:37.856Z,97.20
2018-09-11T00:08:06.695Z,97.30
2018-09-11T00:10:35.565Z,97.20
2018-09-11T00:13:04.451Z,97.10
2018-09-11T00:15:33.300Z,97.00
2018-09-11T00:18:02.177Z,96.90
2018-09-11T00:20:31.072Z,97.00
2018-09-11T00:23:00.312Z,97.20
2018-09-11T00:25:29.205Z,97.40
2018-09-11T00:27:58.105Z,97.30
2018-09-11T00:30:26.951Z,97.50
2018-09-11T00:32:55.795Z,97.40
2018-09-11T00:35:24.696Z,97.40
2018-09-11T00:37:53.554Z,97.40
2018-09-11T00:40:22.762Z,97.40
2018-09-11T00:42:51.630Z,97.50
2018-09-11T00:45:20.515Z,97.70
2018-09-11T00:47:49.371Z,97.70
2018-09-11T00:50:18.326Z,97.80
2018-09-11T00:52:47.161Z,97.70
2018-09-11T00:55:16.025Z,97.80
2018-09-11T00:57:44.967Z,97.80
2018-09-11T01:00:13.809Z,97.90
2018-09-11T01:02:42.654Z,98.10
2018-09-11T01:05:11.557Z,98.10
2018-09-11T01:07:40.443Z,98.20
2018-09-11T01:10:10.097Z,98.10
2018-09-11T01:12:39.096Z,98.40
2018-09-11T01:15:09.124Z,98.30
2018-09-11T01:17:38.302Z,98.30
2018-09-11T01:20:07.931Z,98.40
2018-09-11T01:22:36.758Z,98.40
2018-09-11T01:25:05.678Z,98.80
2018-09-11T01:27:34.577Z,98.40
2018-09-11T01:30:03.422Z,98.50
2018-09-11T01:32:32.255Z,98.40
2018-09-11T01:35:01.175Z,98.50
2018-09-11T01:37:30.032Z,98.90
2018-09-11T01:39:58.899Z,98.70
2018-09-11T01:42:27.794Z,98.60
2018-09-11T01:44:56.638Z,98.70
2018-09-11T01:47:25.476Z,98.80
2018-09-11T01:49:54.442Z,98.70
2018-09-11T01:52:23.284Z,98.70
2018-09-11T01:54:52.123Z,98.80
2018-09-11T01:57:21.052Z,98.80
2018-09-11T01:59:49.934Z,98.80
2018-09-11T02:02:18.816Z,99.00
2018-09-11T02:04:47.740Z,99.10
2018-09-11T02:07:16.607Z,99.10
2018-09-11T02:09:45.545Z,98.90
2018-09-11T02:12:14.429Z,99.00
2018-09-11T02:14:43.418Z,98.80
2018-09-11T02:17:12.289Z,98.80
2018-09-11T02:19:41.164Z,98.60
2018-09-11T02:22:10.021Z,98.40
2018-09-11T02:24:38.861Z,97.80
2018-09-11T02:27:07.663Z,98.00
2018-09-11T02:29:36.544Z,98.00
2018-09-11T02:32:05.388Z,97.90
2018-09-11T02:34:34.340Z,97.30
2018-09-11T02:37:03.167Z,97.20
2018-09-11T02:39:32.042Z,96.60
2018-09-11T02:42:00.941Z,96.70
2018-09-11T02:44:29.803Z,96.50
2018-09-11T02:46:58.640Z,96.50
2018-09-11T02:49:27.520Z,96.50
2018-09-11T02:51:56.460Z,96.60
2018-09-11T02:54:25.859Z,96.50
2018-09-11T02:56:54.751Z,96.40
2018-09-11T02:59:23.606Z,96.40
2018-09-11T03:01:52.476Z,96.50
2018-09-11T03:04:21.367Z,96.40
2018-09-11T03:06:50.219Z,96.00
2018-09-11T03:09:19.738Z,95.60
2018-09-11T03:11:48.639Z,95.80
2018-09-11T03:14:17.487Z,96.00
2018-09-11T03:16:46.359Z,96.30
2018-09-11T03:19:15.257Z,96.10
2018-09-11T03:21:44.100Z,96.30
2018-09-11T03:24:12.961Z,96.30
2018-09-11T03:26:41.864Z,96.20
2018-09-11T03:29:10.757Z,96.50
2018-09-11T03:31:39.608Z,96.70
2018-09-11T03:34:08.524Z,96.70
2018-09-11T03:36:37.384Z,96.70
2018-09-11T03:39:08.168Z,96.80
2018-09-11T03:41:37.113Z,96.90
2018-09-11T03:44:06.122Z,97.00
2018-09-11T03:46:35.019Z,97.10
2018-09-11T03:49:03.947Z,97.20
2018-09-11T03:51:32.810Z,97.20
2018-09-11T03:54:01.720Z,97.00
2018-09-11T03:56:30.585Z,97.00
2018-09-11T03:58:59.416Z,96.90
2018-09-11T04:01:28.363Z,97.30
2018-09-11T04:03:57.684Z,97.20
2018-09-11T04:06:26.510Z,97.20
2018-09-11T04:08:55.435Z,97.00
2018-09-11T04:11:24.307Z,97.00
2018-09-11T04:13:53.147Z,96.90
2018-09-11T04:16:22.060Z,96.90
2018-09-11T04:18:50.938Z,96.80
2018-09-11T04:21:19.822Z,96.70
2018-09-11T04:23:48.745Z,96.60
2018-09-11T04:26:17.635Z,96.40
2018-09-11T04:28:46.548Z,96.30
2018-09-11T04:31:15.534Z,96.10
2018-09-11T04:33:44.627Z,95.60
2018-09-11T04:36:13.542Z,95.60
2018-09-11T04:38:42.498Z,95.20
2018-09-11T04:41:11.368Z,94.80
2018-09-11T04:43:40.227Z,95.00
2018-09-11T04:46:11.682Z,94.80
2018-09-11T04:48:42.485Z,94.70
2018-09-11T04:51:11.365Z,94.50
2018-09-11T04:53:40.216Z,93.60
2018-09-11T04:56:09.291Z,93.20
2018-09-11T04:58:38.283Z,93.60
2018-09-11T05:01:07.357Z,93.30
2018-09-11T05:03:36.228Z,93.40
2018-09-11T05:06:05.216Z,92.80
2018-09-11T05:08:34.135Z,93.00
2018-09-11T05:11:03.198Z,92.30
2018-09-11T05:13:32.117Z,92.30
2018-09-11T05:16:01.297Z,91.70
2018-09-11T05:18:30.421Z,91.30
2018-09-11T05:20:59.343Z,91.60
2018-09-11T05:23:28.257Z,90.90
2018-09-11T05:25:57.244Z,90.20
2018-09-11T05:28:26.108Z,89.40
2018-09-11T05:30:54.977Z,88.50
2018-09-11T05:33:23.923Z,87.80
2018-09-11T05:35:52.777Z,86.90
2018-09-11T05:38:21.704Z,86.10
2018-09-11T05:40:50.627Z,85.80
2018-09-11T05:43:19.553Z,85.70
2018-09-11T05:45:48.465Z,84.50
2018-09-11T05:48:17.364Z,84.30
2018-09-11T05:50:46.277Z,84.40
2018-09-11T05:53:15.123Z,83.70
2018-09-11T05:55:43.982Z,83.70
2018-09-11T05:58:12.924Z,83.60
2018-09-11T06:00:43.134Z,81.90
2018-09-11T06:03:12.017Z,81.40
2018-09-11T06:05:40.953Z,81.20
2018-09-11T06:08:09.791Z,81.60
2018-09-11T06:10:38.740Z,82.00
2018-09-11T06:13:07.928Z,82.40
2018-09-11T06:15:36.803Z,82.30
2018-09-11T06:18:05.781Z,81.30
2018-09-11T06:20:34.887Z,80.10
2018-09-11T06:23:03.773Z,80.40
2018-09-11T06:25:55.169Z,80.00
2018-09-11T06:28:24.224Z,80.90
2018-09-11T06:31:02.104Z,79.80
2018-09-11T06:33:33.763Z,79.40
2018-09-11T06:36:02.716Z,79.20
2018-09-11T06:38:31.555Z,79.90
2018-09-11T06:41:00.536Z,79.50
2018-09-11T06:43:30.791Z,78.80
2018-09-11T06:45:59.674Z,78.30
2018-09-11T06:48:28.579Z,79.20
2018-09-11T06:50:57.449Z,78.40
2018-09-11T06:53:26.401Z,77.70
2018-09-11T06:55:55.297Z,76.90
2018-09-11T06:58:24.150Z,78.50
2018-09-11T07:00:53.111Z,76.90
2018-09-11T07:03:21.979Z,78.10
2018-09-11T07:05:51.456Z,77.90
2018-09-11T07:08:20.494Z,76.00
2018-09-11T07:10:49.350Z,74.40
2018-09-11T07:13:18.306Z,72.60
2018-09-11T07:15:47.241Z,73.40
2018-09-11T07:18:16.174Z,72.10
2018-09-11T07:20:45.037Z,71.30
2018-09-11T07:23:13.954Z,70.50
2018-09-11T07:25:42.813Z,67.80
2018-09-11T07:28:11.676Z,67.60
2018-09-11T07:30:40.650Z,67.70
2018-09-11T07:33:09.516Z,67.50
2018-09-11T07:35:38.360Z,66.60
2018-09-11T07:38:07.354Z,65.70
2018-09-11T07:40:36.320Z,65.50
2018-09-11T07:43:05.284Z,64.70
2018-09-11T07:45:34.313Z,65.00
2018-09-11T07:48:03.118Z,66.60
2018-09-11T07:50:32.017Z,64.30
2018-09-11T07:53:01.013Z,63.50
2018-09-11T07:55:29.843Z,63.70
2018-09-11T07:57:58.768Z,65.40
2018-09-11T08:00:27.751Z,63.40
2018-09-11T08:02:56.689Z,62.20
2018-09-11T08:05:25.553Z,61.20
2018-09-11T08:07:54.434Z,63.00
2018-09-11T08:10:23.364Z,62.30
2018-09-11T08:12:52.220Z,61.80
2018-09-11T08:15:21.161Z,61.60
2018-09-11T08:17:50.047Z,61.60
2018-09-11T08:20:18.909Z,61.80
2018-09-11T08:22:47.982Z,59.80
2018-09-11T08:25:16.853Z,60.50
2018-09-11T08:27:45.702Z,60.00
2018-09-11T08:30:14.640Z,60.80
2018-09-11T08:32:43.500Z,59.20
2018-09-11T08:35:12.359Z,59.80
2018-09-11T08:37:41.227Z,59.40
2018-09-11T08:40:10.077Z,59.90
2018-09-11T08:42:38.939Z,60.80
2018-09-11T08:45:08.236Z,61.70
2018-09-11T08:47:37.157Z,62.80
2018-09-11T08:50:06.308Z,62.60
2018-09-11T08:52:35.286Z,63.90
2018-09-11T08:55:04.202Z,63.70
2018-09-11T08:57:33.106Z,63.00
2018-09-11T09:00:01.998Z,60.00
2018-09-11T09:02:30.844Z,62.00
2018-09-11T09:04:59.730Z,60.90
2018-09-11T09:07:28.620Z,60.60
2018-09-11T09:09:57.553Z,60.00
2018-09-11T09:12:26.468Z,61.30
2018-09-11T09:14:56.230Z,64.20
2018-09-11T09:17:25.077Z,62.70
2018-09-11T09:19:54.035Z,63.70
2018-09-11T09:22:22.950Z,65.60
2018-09-11T09:24:51.864Z,65.20
2018-09-11T09:27:20.814Z,64.10
2018-09-11T09:29:49.751Z,65.30
2018-09-11T09:32:18.712Z,67.30
2018-09-11T09:34:47.653Z,66.00
2018-09-11T09:37:16.577Z,66.20
2018-09-11T09:39:45.425Z,67.10
2018-09-11T09:42:14.464Z,68.80
2018-09-11T09:44:43.436Z,68.40
2018-09-11T09:47:12.403Z,69.00
2018-09-11T09:49:41.349Z,70.80
2018-09-11T09:52:10.215Z,71.50
2018-09-11T09:54:39.089Z,70.30
2018-09-11T09:57:07.967Z,69.20
2018-09-11T09:59:36.835Z,70.00
2018-09-11T10:02:09.937Z,68.80
2018-09-11T10:04:38.795Z,68.70
2018-09-11T10:07:07.664Z,67.70
2018-09-11T10:09:36.560Z,69.00
2018-09-11T10:12:05.410Z,67.90
2018-09-11T10:14:34.297Z,66.40
2018-09-11T10:17:03.245Z,66.50
2018-09-11T10:19:32.095Z,66.00
2018-09-11T10:22:00.972Z,62.20
2018-09-11T10:24:29.878Z,60.80
2018-09-11T10:26:58.740Z,59.90
2018-09-11T10:29:27.676Z,60.80
2018-09-11T10:31:56.589Z,58.50
2018-09-11T10:34:25.749Z,56.40
2018-09-11T10:36:54.800Z,55.30
2018-09-11T10:39:23.766Z,56.90
2018-09-11T10:41:52.592Z,57.00
2018-09-11T10:44:21.570Z,55.20
2018-09-11T10:46:50.528Z,56.30
2018-09-11T10:49:19.414Z,55.40
2018-09-11T10:51:48.313Z,55.30
2018-09-11T10:54:17.245Z,56.60
2018-09-11T10:56:46.077Z,55.90
2018-09-11T10:59:14.961Z,57.40
2018-09-11T11:01:43.880Z,56.70
2018-09-11T11:04:12.825Z,57.10
2018-09-11T11:06:41.697Z,57.00
2018-09-11T11:09:11.548Z,56.50
2018-09-11T11:11:40.580Z,56.60
2018-09-11T11:14:10.035Z,56.40
2018-09-11T11:16:38.878Z,56.10
2018-09-11T11:19:07.753Z,55.40
2018-09-11T11:21:36.752Z,52.50
2018-09-11T11:24:05.593Z,53.30
2018-09-11T11:26:34.441Z,54.80
2018-09-11T11:29:03.420Z,53.70
2018-09-11T11:31:32.275Z,53.60
2018-09-11T11:34:01.102Z,51.90
2018-09-11T11:36:30.135Z,52.00
2018-09-11T11:38:58.997Z,49.90
2018-09-11T11:41:27.853Z,50.60
2018-09-11T11:43:56.770Z,49.90
2018-09-11T11:46:25.588Z,51.40
2018-09-11T11:48:54.451Z,51.60
2018-09-11T11:51:23.386Z,51.40
2018-09-11T11:53:52.278Z,53.50
2018-09-11T11:56:21.234Z,54.20
2018-09-11T11:58:50.233Z,54.20
2018-09-11T12:01:19.133Z,54.50
2018-09-11T12:03:47.989Z,54.70
2018-09-11T12:06:16.884Z,54.20
2018-09-11T12:08:45.725Z,53.90
2018-09-11T12:11:14.565Z,54.00
2018-09-11T12:13:43.583Z,54.50
2018-09-11T12:16:12.572Z,54.50
2018-09-11T12:18:41.372Z,54.60
2018-09-11T12:21:10.235Z,54.10
2018-09-11T12:23:39.073Z,53.70
2018-09-11T12:26:07.916Z,52.60
2018-09-11T12:28:36.908Z,53.00
2018-09-11T12:31:05.833Z,52.50
2018-09-11T12:33:34.677Z,51.70
2018-09-11T12:36:03.696Z,51.50
2018-09-11T12:38:32.561Z,51.20
2018-09-11T12:41:01.465Z,50.20
2018-09-11T12:43:30.388Z,50.40
2018-09-11T12:45:59.420Z,49.70
2018-09-11T12:48:28.296Z,49.10
2018-09-11T12:50:57.128Z,46.90
2018-09-11T12:53:25.959Z,47.80
2018-09-11T12:55:54.919Z,48.60
2018-09-11T12:58:23.792Z,48.20
2018-09-11T13:00:52.828Z,47.50
2018-09-11T13:03:21.843Z,47.00
2018-09-11T13:05:50.802Z,47.70
2018-09-11T13:08:19.645Z,47.30
2018-09-11T13:10:48.522Z,47.70
2018-09-11T13:13:17.478Z,48.00
2018-09-11T13:15:46.358Z,48.30
2018-09-11T13:18:15.200Z,48.30
2018-09-11T13:20:44.125Z,48.60
2018-09-11T13:23:12.974Z,48.00
2018-09-11T13:25:41.816Z,48.70
2018-09-11T13:28:10.701Z,48.30
2018-09-11T13:30:39.593Z,48.30
2018-09-11T13:33:08.472Z,48.40
2018-09-11T13:35:37.414Z,48.00
2018-09-11T13:38:06.573Z,48.60
2018-09-11T13:40:35.546Z,48.40
2018-09-11T13:43:05.245Z,47.50
2018-09-11T13:45:34.252Z,49.20
2018-09-11T13:48:03.123Z,47.90
2018-09-11T13:50:32.049Z,47.40
2018-09-11T13:53:00.999Z,46.50
2018-09-11T13:55:30.029Z,47.20
2018-09-11T13:57:58.963Z,45.60
2018-09-11T14:00:27.840Z,47.30
2018-09-11T14:02:56.830Z,47.20
2018-09-11T14:05:25.673Z,47.60
2018-09-11T14:07:55.183Z,47.30
2018-09-11T14:10:24.056Z,46.90
2018-09-11T14:12:53.078Z,47.90
2018-09-11T14:15:21.956Z,48.90
2018-09-11T14:17:50.828Z,48.70
2018-09-11T14:20:19.700Z,47.50
2018-09-11T14:22:48.636Z,48.80
2018-09-11T14:25:17.480Z,48.20
2018-09-11T14:27:46.321Z,47.30
2018-09-11T14:30:15.220Z,47.10
2018-09-11T14:32:44.051Z,47.90
2018-09-11T14:35:13.140Z,47.40
2018-09-11T14:37:42.135Z,46.30
2018-09-11T14:40:11.093Z,45.90
2018-09-11T14:42:40.023Z,46.90
2018-09-11T14:45:09.050Z,47.30
2018-09-11T14:47:41.932Z,46.70
2018-09-11T14:50:11.568Z,46.50
2018-09-11T14:52:40.525Z,46.70
2018-09-11T14:55:10.164Z,48.10
2018-09-11T14:57:39.031Z,48.20
2018-09-11T15:00:08.295Z,46.30
2018-09-11T15:02:37.208Z,45.30
2018-09-11T15:05:06.056Z,45.30
2018-09-11T15:07:35.016Z,46.00
2018-09-11T15:10:04.008Z,46.60
2018-09-11T15:12:32.920Z,46.10
2018-09-11T15:15:01.863Z,46.20
2018-09-11T15:17:30.740Z,45.40
2018-09-11T15:19:59.837Z,45.90
2018-09-11T15:22:28.919Z,46.60
2018-09-11T15:24:58.752Z,47.00
2018-09-11T15:27:30.087Z,47.30
2018-09-11T15:29:59.677Z,49.90
2018-09-11T15:32:28.875Z,48.50
2018-09-11T15:34:58.095Z,49.90
2018-09-11T15:37:27.102Z,50.10
2018-09-11T15:39:57.109Z,50.00
2018-09-11T15:42:26.090Z,49.30
2018-09-11T15:44:55.084Z,49.00
2018-09-11T15:47:24.050Z,49.00
2018-09-11T15:49:55.195Z,49.80
2018-09-11T15:52:24.114Z,49.80
2018-09-11T15:54:53.239Z,50.00
2018-09-11T15:57:23.088Z,51.00
2018-09-11T15:59:53.370Z,51.20
2018-09-11T16:02:23.037Z,52.00
2018-09-11T16:04:52.701Z,53.10
2018-09-11T16:07:21.714Z,52.50
2018-09-11T16:09:50.598Z,53.20
2018-09-11T16:12:20.360Z,53.80
2018-09-11T16:14:49.345Z,53.90
2018-09-11T16:17:18.308Z,54.00
2018-09-11T16:19:47.416Z,52.50
2018-09-11T16:22:16.370Z,51.70
2018-09-11T16:24:46.198Z,52.30
2018-09-11T16:27:15.081Z,51.90
2018-09-11T16:29:43.987Z,52.60
2018-09-11T16:32:12.985Z,52.70
2018-09-11T16:34:41.936Z,52.50
2018-09-11T16:37:10.821Z,52.60
2018-09-11T16:39:39.858Z,53.60
2018-09-11T16:42:08.848Z,53.60
2018-09-11T16:44:37.732Z,53.60
2018-09-11T16:47:06.846Z,53.90
2018-09-11T16:49:35.820Z,54.70
2018-09-11T16:52:04.793Z,54.50
2018-09-11T16:54:33.666Z,54.30
2018-09-11T16:57:02.730Z,55.30
2018-09-11T16:59:31.627Z,55.70
2018-09-11T17:02:00.881Z,55.70
2018-09-11T17:04:29.778Z,55.80
2018-09-11T17:06:58.724Z,56.80
2018-09-11T17:09:27.870Z,56.50
2018-09-11T17:11:57.472Z,57.10
2018-09-11T17:14:26.547Z,57.50
2018-09-11T17:16:55.420Z,58.00
2018-09-11T17:19:25.948Z,58.40
2018-09-11T17:21:55.066Z,58.50
2018-09-11T17:24:24.401Z,59.10
2018-09-11T17:26:53.609Z,59.60
2018-09-11T17:29:23.679Z,59.80
2018-09-11T17:31:53.115Z,60.80
2018-09-11T17:34:22.451Z,61.10
2018-09-11T17:36:51.718Z,61.50
2018-09-11T17:39:21.185Z,61.60
2018-09-11T17:41:50.207Z,62.40
2018-09-11T17:44:19.663Z,63.00
2018-09-11T17:46:48.861Z,63.50
2018-09-11T17:49:18.142Z,63.40
2018-09-11T17:51:47.091Z,63.30
2018-09-11T17:54:16.366Z,63.60
2018-09-11T17:56:46.692Z,64.10
2018-09-11T17:59:15.774Z,64.50
2018-09-11T18:01:44.868Z,65.00
2018-09-11T18:04:13.867Z,64.80
2018-09-11T18:06:42.855Z,64.90
2018-09-11T18:09:11.912Z,65.40
2018-09-11T18:11:40.820Z,66.00
2018-09-11T18:14:09.749Z,66.40
2018-09-11T18:16:38.770Z,66.40
2018-09-11T18:19:07.685Z,66.70
2018-09-11T18:21:36.703Z,66.80
2018-09-11T18:24:05.708Z,66.50
2018-09-11T18:26:35.008Z,66.60
2018-09-11T18:29:04.029Z,66.30
2018-09-11T18:31:33.134Z,67.00
2018-09-11T18:34:02.197Z,66.70
2018-09-11T18:36:32.069Z,66.90
2018-09-11T18:39:01.412Z,66.80
2018-09-11T18:41:30.351Z,67.00
2018-09-11T18:43:59.303Z,67.00
2018-09-11T18:46:28.341Z,66.70
2018-09-11T18:48:58.632Z,66.90
2018-09-11T18:51:28.035Z,66.70
2018-09-11T18:53:57.131Z,66.50
2018-09-11T18:56:26.738Z,66.60
2018-09-11T18:58:55.864Z,66.00
2018-09-11T19:01:28.103Z,66.40
2018-09-11T19:04:45.968Z,67.50
2018-09-11T19:07:15.726Z,67.10
2018-09-11T19:09:44.764Z,66.90
2018-09-11T19:12:13.877Z,67.00
2018-09-11T19:14:42.941Z,67.10
2018-09-11T19:17:11.900Z,66.70
2018-09-11T19:19:40.768Z,67.40
2018-09-11T19:22:09.634Z,67.70
2018-09-11T19:24:38.576Z,67.90
2018-09-11T19:27:07.530Z,68.60
2018-09-11T19:29:36.436Z,68.60
2018-09-11T19:32:05.420Z,68.80
2018-09-11T19:34:34.469Z,68.50
2018-09-11T19:37:03.503Z,69.80
2018-09-11T19:39:32.389Z,69.60
2018-09-11T19:42:01.343Z,69.20
2018-09-11T19:44:30.216Z,69.60
2018-09-11T19:46:59.055Z,71.00
2018-09-11T19:49:27.980Z,70.10
2018-09-11T19:51:56.863Z,69.30
2018-09-11T19:54:25.724Z,69.40
2018-09-11T19:56:54.625Z,69.30
2018-09-11T19:59:23.468Z,68.20
2018-09-11T20:01:52.339Z,68.00
2018-09-11T20:04:21.315Z,67.60
2018-09-11T20:06:50.385Z,68.00
2018-09-11T20:09:19.425Z,68.90
2018-09-11T20:11:48.326Z,69.10
2018-09-11T20:14:17.466Z,70.20
2018-09-11T20:16:46.326Z,71.60
2018-09-11T20:19:15.210Z,71.80
2018-09-11T20:21:44.224Z,72.40
2018-09-11T20:24:13.319Z,71.50
2018-09-11T20:26:42.184Z,71.70
2018-09-11T20:29:11.535Z,72.50
2018-09-11T20:31:40.413Z,72.80
2018-09-11T20:34:09.260Z,73.20
2018-09-11T20:36:38.205Z,72.60
2018-09-11T20:39:09.849Z,73.40
2018-09-11T20:41:38.819Z,72.30
2018-09-11T20:44:08.328Z,72.20
2018-09-11T20:46:37.220Z,72.30
2018-09-11T20:49:06.163Z,73.00
2018-09-11T20:51:35.079Z,73.30
2018-09-11T20:54:03.951Z,73.20
2018-09-11T20:56:32.811Z,73.40
2018-09-11T20:59:01.753Z,73.10
2018-09-11T21:01:30.748Z,73.50
2018-09-11T21:03:59.584Z,74.30
2018-09-11T21:06:28.624Z,73.80
2018-09-11T21:08:57.663Z,73.70
2018-09-11T21:11:26.582Z,74.70
2018-09-11T21:13:55.533Z,75.00
2018-09-11T21:16:24.462Z,74.80
2018-09-11T21:18:55.224Z,75.10
2018-09-11T21:21:24.118Z,75.60
2018-09-11T21:23:53.145Z,75.40
2018-09-11T21:26:22.110Z,74.90
2018-09-11T21:28:51.430Z,75.20
2018-09-11T21:31:20.385Z,75.60
2018-09-11T21:33:49.332Z,75.60
2018-09-11T21:36:18.167Z,75.60
2018-09-11T21:38:47.099Z,76.40
2018-09-11T21:41:16.013Z,75.70
2018-09-11T21:43:44.980Z,76.30
2018-09-11T21:46:13.823Z,76.70
2018-09-11T21:48:42.792Z,76.40
2018-09-11T21:51:11.648Z,76.50
2018-09-11T21:53:40.474Z,76.80
2018-09-11T21:56:09.373Z,76.30
2018-09-11T21:58:38.213Z,76.70
2018-09-11T22:01:12.435Z,76.90
2018-09-11T22:03:41.263Z,77.20
2018-09-11T22:06:10.088Z,77.10
2018-09-11T22:08:39.075Z,77.50
2018-09-11T22:11:07.947Z,77.10
2018-09-11T22:13:36.776Z,77.30
2018-09-11T22:16:05.656Z,77.30
2018-09-11T22:18:34.520Z,77.80
2018-09-11T22:21:03.352Z,77.90
2018-09-11T22:23:32.267Z,78.00
2018-09-11T22:26:01.105Z,77.60
2018-09-11T22:28:29.951Z,77.60
2018-09-11T22:30:58.849Z,77.90
2018-09-11T22:33:27.814Z,78.80
2018-09-11T22:35:56.679Z,78.40
2018-09-11T22:38:25.565Z,78.40
2018-09-11T22:40:54.403Z,78.40
2018-09-11T22:43:23.275Z,78.30
2018-09-11T22:45:52.309Z,77.90
2018-09-11T22:48:21.167Z,78.30
2018-09-11T22:50:50.128Z,78.80
2018-09-11T22:53:19.044Z,79.00
2018-09-11T22:55:47.914Z,78.70
2018-09-11T22:58:16.756Z,78.60
2018-09-11T23:00:45.636Z,78.70
2018-09-11T23:03:14.478Z,78.50
2018-09-11T23:05:43.354Z,78.40
2018-09-11T23:08:12.785Z,78.40
2018-09-11T23:10:41.621Z,78.00
2018-09-11T23:13:10.468Z,78.70
2018-09-11T23:15:39.364Z,78.00
2018-09-11T23:18:08.300Z,78.10
2018-09-11T23:20:37.144Z,78.30
2018-09-11T23:23:06.035Z,78.70
2018-09-11T23:25:34.903Z,78.90
2018-09-11T23:28:03.764Z,79.40
2018-09-11T23:30:33.314Z,79.20
2018-09-11T23:33:02.135Z,79.00
2018-09-11T23:35:30.996Z,78.60
2018-09-11T23:37:59.893Z,78.80
2018-09-11T23:40:28.730Z,78.90
2018-09-11T23:42:57.590Z,79.20
2018-09-11T23:45:26.492Z,79.40
2018-09-11T23:47:55.435Z,79.40
2018-09-11T23:50:24.278Z,80.70
2018-09-11T23:52:53.263Z,80.30
2018-09-11T23:55:22.125Z,80.20
2018-09-11T23:57:50.969Z,80.70
